Time;durP1;ratioP1;P1;durP2;ratioP2;P2;SDS_P1;SDS_P2;PMS_P1;PMS_P2;Temp;Humidity;BMP_temperature;BMP_pressure;BME280_temperature;BME280_humidity;BME280_pressure;Samples;Min_cycle;Max_cycle;Signal;HPM_P1;HPM_P2
2023/08/14 00:00:10;;;;;;;5.18;4.00;;;;;;;;;;5030996;28;20491;-72
2023/08/14 00:02:35;;;;;;;9.30;4.72;;;;;;;;;;5030143;28;20037;-72
2023/08/14 00:05:00;;;;;;;5.97;4.78;;;;;;;;;;5031784;28;20097;-72
2023/08/14 00:07:25;;;;;;;6.22;5.53;;;;;;;;;;5029361;28;20037;-71
2023/08/14 00:09:50;;;;;;;5.88;3.95;;;;;;;;;;5031136;28;20435;-72
2023/08/14 00:12:16;;;;;;;4.17;3.20;;;;;;;;;;5029784;28;20068;-71
2023/08/14 00:14:41;;;;;;;20.33;2.57;;;;;;;;;;5031087;28;20086;-72
2023/08/14 00:17:06;;;;;;;2.08;1.98;;;;;;;;;;5028539;28;20037;-70
2023/08/14 00:19:31;;;;;;;3.75;2.70;;;;;;;;;;5031026;28;20083;-70
2023/08/14 00:21:56;;;;;;;3.27;3.07;;;;;;;;;;5029172;28;20064;-70
2023/08/14 00:24:21;;;;;;;7.15;3.78;;;;;;;;;;5030755;28;20465;-70
2023/08/14 00:26:46;;;;;;;6.30;4.43;;;;;;;;;;5029715;28;20056;-70
2023/08/14 00:29:12;;;;;;;6.75;5.85;;;;;;;;;;5030773;28;20017;-70
2023/08/14 00:31:37;;;;;;;7.35;5.25;;;;;;;;;;5029624;28;20585;-70
2023/08/14 00:34:02;;;;;;;5.30;4.90;;;;;;;;;;5031260;28;20025;-70
2023/08/14 00:36:27;;;;;;;7.77;4.90;;;;;;;;;;5028618;28;20025;-70
2023/08/14 00:38:52;;;;;;;9.50;5.07;;;;;;;;;;5031119;28;20056;-70
2023/08/14 00:41:18;;;;;;;8.07;3.55;;;;;;;;;;5029255;28;20540;-70
2023/08/14 00:43:43;;;;;;;7.35;4.60;;;;;;;;;;5030690;28;20017;-70
2023/08/14 00:46:08;;;;;;;6.72;2.72;;;;;;;;;;5029343;28;20120;-70
2023/08/14 00:48:34;;;;;;;16.87;2.50;;;;;;;;;;5030670;28;20079;-70
2023/08/14 00:50:59;;;;;;;24.73;4.50;;;;;;;;;;5029134;28;20444;-70
2023/08/14 00:53:25;;;;;;;11.07;4.30;;;;;;;;;;5030120;28;20063;-70
2023/08/14 00:55:51;;;;;;;10.15;4.18;;;;;;;;;;5029060;28;20045;-70
2023/08/14 00:58:16;;;;;;;5.25;4.72;;;;;;;;;;5030990;28;20048;-70
2023/08/14 01:00:42;;;;;;;7.10;4.63;;;;;;;;;;5028834;28;20025;-69
2023/08/14 01:03:07;;;;;;;5.22;4.72;;;;;;;;;;5030991;28;20013;-69
2023/08/14 01:05:32;;;;;;;5.40;4.83;;;;;;;;;;5030702;28;20025;-70
2023/08/14 01:07:57;;;;;;;6.57;5.87;;;;;;;;;;5028789;28;20522;-70
2023/08/14 01:10:25;;;;;;;5.97;5.43;;;;;;;;;;5032748;28;20444;-70
2023/08/14 01:12:50;;;;;;;12.02;6.22;;;;;;;;;;5033220;28;20124;-69
2023/08/14 01:15:20;;;;;;;10.95;6.45;;;;;;;;;;5033568;28;20120;-69
2023/08/14 01:17:52;;;;;;;8.43;6.10;;;;;;;;;;5032007;28;20520;-69
2023/08/14 01:20:18;;;;;;;10.95;7.10;;;;;;;;;;5034566;28;20053;-69
2023/08/14 01:22:49;;;;;;;6.15;4.18;;;;;;;;;;5050550;28;20037;-66
2023/08/14 01:25:19;;;;;;;8.07;4.80;;;;;;;;;;5054203;28;20412;-67
2023/08/14 01:27:44;;;;;;;6.78;6.07;;;;;;;;;;5052715;28;20064;-67
2023/08/14 01:30:10;;;;;;;9.73;8.27;;;;;;;;;;5054265;28;20067;-67
2023/08/14 01:32:35;;;;;;;12.63;7.78;;;;;;;;;;5052789;28;20488;-67
2023/08/14 01:35:00;;;;;;;10.93;6.53;;;;;;;;;;5054178;28;20063;-67
2023/08/14 01:37:31;;;;;;;16.05;8.50;;;;;;;;;;5052392;28;20036;-67
2023/08/14 01:40:05;;;;;;;11.93;7.82;;;;;;;;;;5054414;28;20111;-67
2023/08/14 01:42:33;;;;;;;9.73;8.73;;;;;;;;;;5052617;28;20033;-67
2023/08/14 01:45:05;;;;;;;7.30;6.60;;;;;;;;;;5054016;28;20009;-67
2023/08/14 01:47:30;;;;;;;16.92;4.05;;;;;;;;;;5052408;28;20029;-67
2023/08/14 01:49:56;;;;;;;4.30;4.00;;;;;;;;;;5053914;28;20078;-66
2023/08/14 01:52:21;;;;;;;6.88;5.03;;;;;;;;;;5051634;28;20124;-67
2023/08/14 01:54:46;;;;;;;7.07;6.33;;;;;;;;;;5053974;28;20023;-66
2023/08/14 01:57:11;;;;;;;14.40;8.07;;;;;;;;;;5052184;28;20465;-65
2023/08/14 01:59:46;;;;;;;28.45;7.18;;;;;;;;;;5053730;28;20032;-68
2023/08/14 02:02:12;;;;;;;7.78;5.55;;;;;;;;;;5052189;28;20040;-66
2023/08/14 02:04:37;;;;;;;5.43;4.60;;;;;;;;;;5052583;28;20017;-66
2023/08/14 02:07:02;;;;;;;6.93;6.33;;;;;;;;;;5051922;28;20097;-66
2023/08/14 02:09:27;;;;;;;8.30;5.47;;;;;;;;;;5053238;28;20596;-64
2023/08/14 02:11:53;;;;;;;8.55;7.07;;;;;;;;;;5051910;28;21026;-68
2023/08/14 02:14:18;;;;;;;12.77;7.95;;;;;;;;;;5052886;28;20020;-67
2023/08/14 02:16:43;;;;;;;8.77;6.93;;;;;;;;;;5051857;28;20033;-68
2023/08/14 02:19:08;;;;;;;9.32;5.47;;;;;;;;;;5053215;28;20049;-68
2023/08/14 02:21:33;;;;;;;4.77;4.23;;;;;;;;;;5051136;28;20041;-71
2023/08/14 02:23:58;;;;;;;5.35;4.53;;;;;;;;;;5053419;28;20033;-71
2023/08/14 02:26:24;;;;;;;8.43;6.23;;;;;;;;;;5034090;28;20038;-72
2023/08/14 02:28:49;;;;;;;7.50;5.57;;;;;;;;;;5013424;28;20014;-71
2023/08/14 02:31:14;;;;;;;9.43;6.57;;;;;;;;;;5012234;28;20103;-71
2023/08/14 02:33:39;;;;;;;8.60;6.43;;;;;;;;;;5013745;28;20029;-69
2023/08/14 02:36:04;;;;;;;14.53;9.77;;;;;;;;;;5011755;28;20037;-69
2023/08/14 02:38:30;;;;;;;8.50;5.90;;;;;;;;;;5023768;28;20444;-69
2023/08/14 02:40:55;;;;;;;7.38;6.72;;;;;;;;;;5030797;28;20120;-69
2023/08/14 02:43:21;;;;;;;8.55;4.47;;;;;;;;;;5032533;28;20021;-69
2023/08/14 02:45:46;;;;;;;9.37;6.03;;;;;;;;;;5031813;28;20440;-68
2023/08/14 02:48:11;;;;;;;8.93;8.13;;;;;;;;;;5032749;28;20017;-70
2023/08/14 02:50:36;;;;;;;9.23;8.37;;;;;;;;;;5030898;28;20452;-68
2023/08/14 02:53:01;;;;;;;12.65;7.40;;;;;;;;;;5032963;28;20013;-70
2023/08/14 02:55:27;;;;;;;13.57;7.20;;;;;;;;;;5032754;28;20024;-70
2023/08/14 02:57:52;;;;;;;25.95;5.35;;;;;;;;;;5030998;28;20128;-70
2023/08/14 03:00:17;;;;;;;5.00;3.63;;;;;;;;;;5031482;28;20025;-70
2023/08/14 03:02:43;;;;;;;6.50;3.90;;;;;;;;;;5031216;28;20040;-69
2023/08/14 03:05:08;;;;;;;18.67;4.87;;;;;;;;;;5032437;28;20022;-67
2023/08/14 03:07:33;;;;;;;7.57;5.97;;;;;;;;;;5030920;28;21068;-68
2023/08/14 03:09:58;;;;;;;6.83;5.90;;;;;;;;;;5032643;28;20870;-68
2023/08/14 03:12:23;;;;;;;8.50;6.17;;;;;;;;;;5030505;28;20041;-68
2023/08/14 03:14:48;;;;;;;12.25;6.32;;;;;;;;;;5032688;28;20430;-68
2023/08/14 03:17:14;;;;;;;7.07;6.47;;;;;;;;;;5030830;28;20369;-68
2023/08/14 03:19:39;;;;;;;7.72;7.03;;;;;;;;;;5032019;28;20049;-68
2023/08/14 03:22:04;;;;;;;10.98;9.30;;;;;;;;;;5030997;28;20045;-68
2023/08/14 03:24:29;;;;;;;11.80;9.50;;;;;;;;;;5031055;28;20052;-68
2023/08/14 03:26:55;;;;;;;11.73;9.13;;;;;;;;;;5030716;28;20034;-69
2023/08/14 03:29:21;;;;;;;9.05;7.75;;;;;;;;;;5032065;28;20036;-68
2023/08/14 03:31:46;;;;;;;9.18;7.97;;;;;;;;;;5029862;28;20033;-68
2023/08/14 03:34:11;;;;;;;9.85;7.35;;;;;;;;;;5031808;28;20069;-68
2023/08/14 03:36:36;;;;;;;14.80;7.65;;;;;;;;;;5030750;28;20504;-68
2023/08/14 03:39:01;;;;;;;8.85;7.65;;;;;;;;;;5031733;28;20369;-68
2023/08/14 03:41:27;;;;;;;8.45;6.80;;;;;;;;;;5030199;28;20042;-68
2023/08/14 03:43:52;;;;;;;9.23;6.60;;;;;;;;;;5032229;28;20028;-67
2023/08/14 03:46:17;;;;;;;20.07;11.87;;;;;;;;;;5030161;28;20099;-67
2023/08/14 03:48:42;;;;;;;12.60;9.53;;;;;;;;;;5031312;28;20990;-67
2023/08/14 03:51:08;;;;;;;13.13;9.60;;;;;;;;;;5045938;28;20036;-67
2023/08/14 03:53:33;;;;;;;13.88;9.93;;;;;;;;;;5031896;28;20494;-67
2023/08/14 03:55:58;;;;;;;22.67;10.75;;;;;;;;;;5030225;28;20044;-67
2023/08/14 03:58:23;;;;;;;13.10;10.60;;;;;;;;;;5031212;28;20440;-67
2023/08/14 04:00:48;;;;;;;14.13;8.93;;;;;;;;;;5030399;28;20026;-67
2023/08/14 04:03:14;;;;;;;9.50;7.07;;;;;;;;;;5031286;28;20025;-68
2023/08/14 04:05:39;;;;;;;6.72;5.70;;;;;;;;;;5029433;28;20029;-67
2023/08/14 04:08:05;;;;;;;8.50;7.20;;;;;;;;;;5031616;28;20055;-69
2023/08/14 04:10:30;;;;;;;7.22;5.07;;;;;;;;;;5031518;28;20021;-67
2023/08/14 04:12:55;;;;;;;8.00;4.57;;;;;;;;;;5029782;28;20545;-68
2023/08/14 04:15:20;;;;;;;23.73;6.03;;;;;;;;;;5030975;28;20023;-68
2023/08/14 04:17:46;;;;;;;5.05;4.68;;;;;;;;;;5029771;28;20522;-68
2023/08/14 04:20:11;;;;;;;6.60;5.87;;;;;;;;;;5030693;28;20037;-68
2023/08/14 04:22:36;;;;;;;5.55;5.05;;;;;;;;;;5029172;28;20510;-68
2023/08/14 04:25:01;;;;;;;4.55;4.15;;;;;;;;;;5031477;28;20045;-68
2023/08/14 04:27:26;;;;;;;8.87;6.23;;;;;;;;;;5035787;28;20399;-65
2023/08/14 04:29:51;;;;;;;6.13;5.63;;;;;;;;;;5031032;28;20436;-67
2023/08/14 04:32:17;;;;;;;6.60;6.00;;;;;;;;;;5028767;28;20128;-74
2023/08/14 04:34:42;;;;;;;8.35;6.07;;;;;;;;;;5030207;28;20381;-68
2023/08/14 04:37:07;;;;;;;9.00;6.78;;;;;;;;;;5029463;28;20124;-69
2023/08/14 04:39:32;;;;;;;10.93;7.17;;;;;;;;;;5029488;28;20029;-69
2023/08/14 04:41:57;;;;;;;8.38;7.57;;;;;;;;;;5029220;28;20452;-66
2023/08/14 04:44:23;;;;;;;7.03;6.32;;;;;;;;;;5029284;28;20021;-66
2023/08/14 04:46:50;;;;;;;5.47;4.60;;;;;;;;;;5029311;28;20506;-66
2023/08/14 04:49:15;;;;;;;13.15;7.78;;;;;;;;;;5030670;28;20028;-66
2023/08/14 04:51:40;;;;;;;14.35;9.32;;;;;;;;;;5029685;28;20396;-66
2023/08/14 04:54:05;;;;;;;8.57;7.13;;;;;;;;;;5031010;28;20038;-66
2023/08/14 04:56:31;;;;;;;14.07;8.37;;;;;;;;;;5028666;28;20038;-65
2023/08/14 04:58:56;;;;;;;11.07;9.30;;;;;;;;;;5031013;28;20135;-66
2023/08/14 05:01:21;;;;;;;11.95;8.18;;;;;;;;;;5029017;28;20952;-66
2023/08/14 05:03:46;;;;;;;20.10;9.50;;;;;;;;;;5030670;28;20045;-66
2023/08/14 05:06:12;;;;;;;9.90;8.73;;;;;;;;;;5028586;28;20038;-64
2023/08/14 05:08:38;;;;;;;8.80;7.63;;;;;;;;;;5030016;28;20463;-68
2023/08/14 05:11:03;;;;;;;9.65;7.05;;;;;;;;;;5028860;28;20439;-65
2023/08/14 05:13:28;;;;;;;11.63;8.73;;;;;;;;;;5027745;28;20029;-66
2023/08/14 05:15:53;;;;;;;8.07;7.28;;;;;;;;;;5028025;28;20032;-66
2023/08/14 05:18:19;;;;;;;10.73;8.37;;;;;;;;;;5029490;28;20064;-66
2023/08/14 05:20:47;;;;;;;10.55;6.65;;;;;;;;;;5029114;28;20480;-66
2023/08/14 05:23:12;;;;;;;;;;;;;;;;;;5029321;28;20025;-67
2023/08/14 05:25:38;;;;;;;13.40;10.20;;;;;;;;;;5027841;28;19909;-65
2023/08/14 05:28:03;;;;;;;16.10;10.40;;;;;;;;;;5029990;28;20465;-66
2023/08/14 05:30:28;;;;;;;18.30;12.95;;;;;;;;;;5028068;28;20458;-67
2023/08/14 05:32:54;;;;;;;14.40;11.87;;;;;;;;;;5027796;28;20128;-67
2023/08/14 05:35:23;;;;;;;17.00;12.53;;;;;;;;;;5029237;28;20026;-67
2023/08/14 05:37:48;;;;;;;15.23;12.82;;;;;;;;;;5026926;28;20042;-67
2023/08/14 05:40:14;;;;;;;17.70;15.70;;;;;;;;;;5029271;28;20033;-67
2023/08/14 05:42:39;;;;;;;20.60;16.52;;;;;;;;;;5027558;28;20041;-68
2023/08/14 05:45:05;;;;;;;30.37;18.90;;;;;;;;;;5028687;28;20013;-67
2023/08/14 05:47:30;;;;;;;23.42;19.40;;;;;;;;;;5027739;28;20464;-67
2023/08/14 05:49:55;;;;;;;21.63;19.43;;;;;;;;;;5029180;28;20491;-67
2023/08/14 05:52:20;;;;;;;20.73;17.67;;;;;;;;;;5026667;28;20046;-68
2023/08/14 05:54:45;;;;;;;28.67;18.70;;;;;;;;;;5029445;28;20043;-68
2023/08/14 05:57:10;;;;;;;28.92;20.75;;;;;;;;;;5031688;28;20099;-67
2023/08/14 05:59:36;;;;;;;27.75;18.85;;;;;;;;;;5032216;28;20029;-67
2023/08/14 06:02:01;;;;;;;18.23;16.37;;;;;;;;;;5031250;28;20034;-67
2023/08/14 06:04:26;;;;;;;28.90;15.97;;;;;;;;;;5032879;28;20025;-69
2023/08/14 06:06:52;;;;;;;23.80;15.38;;;;;;;;;;5030851;28;20035;-74
2023/08/14 06:09:19;;;;;;;20.95;15.70;;;;;;;;;;5032453;28;20083;-67
2023/08/14 06:11:44;;;;;;;18.63;12.82;;;;;;;;;;5031564;28;20033;-64
2023/08/14 06:14:09;;;;;;;20.10;14.17;;;;;;;;;;5032341;28;20412;-66
2023/08/14 06:16:34;;;;;;;23.07;15.07;;;;;;;;;;5030279;28;20057;-63
2023/08/14 06:19:00;;;;;;;21.30;12.83;;;;;;;;;;5032759;28;20409;-64
2023/08/14 06:21:25;;;;;;;24.90;12.57;;;;;;;;;;5031059;28;20041;-63
2023/08/14 06:23:50;;;;;;;19.48;12.90;;;;;;;;;;5032245;28;20452;-63
2023/08/14 06:26:16;;;;;;;18.67;12.50;;;;;;;;;;5030867;28;20498;-64
2023/08/14 06:28:41;;;;;;;21.55;11.02;;;;;;;;;;5032559;28;20032;-63
2023/08/14 06:31:06;;;;;;;12.68;9.90;;;;;;;;;;5030279;28;20500;-63
2023/08/14 06:33:31;;;;;;;13.33;10.60;;;;;;;;;;5032028;28;20022;-63
2023/08/14 06:35:56;;;;;;;17.77;11.60;;;;;;;;;;5031435;28;20444;-63
2023/08/14 06:38:22;;;;;;;21.07;13.60;;;;;;;;;;5030975;28;20491;-64
2023/08/14 06:40:47;;;;;;;22.88;11.52;;;;;;;;;;5018678;28;20153;-63
2023/08/14 06:43:12;;;;;;;34.58;14.38;;;;;;;;;;5049112;28;20025;-64
2023/08/14 06:45:37;;;;;;;19.48;12.73;;;;;;;;;;5047197;28;20021;-63
2023/08/14 06:48:02;;;;;;;17.00;12.13;;;;;;;;;;5027649;28;20030;-64
2023/08/14 06:50:28;;;;;;;15.77;11.30;;;;;;;;;;5031639;28;20380;-64
2023/08/14 06:52:53;;;;;;;16.83;9.97;;;;;;;;;;5030914;28;20040;-64
2023/08/14 06:55:20;;;;;;;16.57;11.37;;;;;;;;;;5032154;28;20017;-63
2023/08/14 06:57:45;;;;;;;15.77;10.80;;;;;;;;;;5030779;28;20037;-63
2023/08/14 07:00:12;;;;;;;14.60;10.23;;;;;;;;;;5032726;28;20384;-64
2023/08/14 07:02:37;;;;;;;10.00;8.90;;;;;;;;;;5030555;28;20087;-64
2023/08/14 07:05:02;;;;;;;17.42;10.13;;;;;;;;;;5032427;28;20026;-64
2023/08/14 07:07:28;;;;;;;20.33;12.23;;;;;;;;;;5029307;28;20044;-64
2023/08/14 07:09:53;;;;;;;17.90;11.77;;;;;;;;;;5031862;28;20089;-64
2023/08/14 07:12:18;;;;;;;20.73;9.93;;;;;;;;;;5030298;28;20125;-64
2023/08/14 07:14:43;;;;;;;12.40;9.43;;;;;;;;;;5030811;28;20013;-64
2023/08/14 07:17:08;;;;;;;21.92;12.50;;;;;;;;;;5030073;28;20464;-63
2023/08/14 07:19:33;;;;;;;14.77;9.00;;;;;;;;;;5018979;28;20523;-64
2023/08/14 07:21:58;;;;;;;18.83;9.37;;;;;;;;;;5029281;28;20045;-64
2023/08/14 07:24:24;;;;;;;10.75;9.68;;;;;;;;;;5030861;28;20037;-64
2023/08/14 07:26:49;;;;;;;13.73;10.32;;;;;;;;;;5030034;28;20052;-64
2023/08/14 07:29:14;;;;;;;14.50;11.23;;;;;;;;;;5030100;28;20025;-64
2023/08/14 07:31:40;;;;;;;15.23;11.00;;;;;;;;;;5028615;28;20420;-64
2023/08/14 07:34:06;;;;;;;20.27;12.43;;;;;;;;;;5031000;28;20016;-64
2023/08/14 07:36:31;;;;;;;14.23;9.70;;;;;;;;;;5029761;28;20055;-64
2023/08/14 07:38:56;;;;;;;17.53;11.47;;;;;;;;;;5030371;28;20370;-64
2023/08/14 07:41:21;;;;;;;13.32;9.65;;;;;;;;;;5029839;28;20041;-64
2023/08/14 07:43:46;;;;;;;16.03;10.27;;;;;;;;;;5031805;28;20036;-64
2023/08/14 07:46:12;;;;;;;12.07;10.10;;;;;;;;;;5029146;28;20456;-63
2023/08/14 07:48:37;;;;;;;12.07;7.83;;;;;;;;;;5030081;28;20028;-71
2023/08/14 07:51:02;;;;;;;21.23;9.27;;;;;;;;;;5029598;28;20543;-65
2023/08/14 07:53:27;;;;;;;17.37;8.03;;;;;;;;;;5029923;28;20028;-64
2023/08/14 07:55:52;;;;;;;14.97;7.50;;;;;;;;;;5029587;28;20452;-64
2023/08/14 07:58:18;;;;;;;18.87;7.20;;;;;;;;;;5030417;28;20537;-64
2023/08/14 08:00:43;;;;;;;7.20;5.90;;;;;;;;;;5029508;28;21068;-64
2023/08/14 08:03:08;;;;;;;12.13;6.75;;;;;;;;;;5031677;28;20491;-63
2023/08/14 08:05:34;;;;;;;12.00;7.38;;;;;;;;;;5029677;28;20128;-63
2023/08/14 08:08:01;;;;;;;16.57;9.57;;;;;;;;;;5030686;28;20025;-64
2023/08/14 08:10:26;;;;;;;12.00;5.28;;;;;;;;;;5031120;28;20025;-63
2023/08/14 08:12:51;;;;;;;13.50;5.20;;;;;;;;;;5019775;28;20109;-63
2023/08/14 08:15:16;;;;;;;8.07;5.05;;;;;;;;;;5028466;28;20444;-63
2023/08/14 08:17:41;;;;;;;9.35;5.05;;;;;;;;;;5029053;28;20029;-63
2023/08/14 08:20:07;;;;;;;10.97;5.73;;;;;;;;;;5028635;28;20054;-63
2023/08/14 08:22:33;;;;;;;10.20;4.55;;;;;;;;;;5028025;28;20041;-63
2023/08/14 08:24:58;;;;;;;14.55;4.75;;;;;;;;;;5031480;28;20018;-63
2023/08/14 08:27:23;;;;;;;6.28;3.83;;;;;;;;;;5029270;28;20029;-64
2023/08/14 08:29:48;;;;;;;10.02;4.93;;;;;;;;;;5030300;28;20081;-63
2023/08/14 08:32:13;;;;;;;3.87;2.80;;;;;;;;;;5029261;28;20042;-63
2023/08/14 08:34:38;;;;;;;6.07;3.72;;;;;;;;;;5030872;28;20053;-63
2023/08/14 08:37:04;;;;;;;7.97;3.23;;;;;;;;;;5029477;28;20048;-64
2023/08/14 08:39:29;;;;;;;9.27;4.20;;;;;;;;;;5030495;28;20070;-63
2023/08/14 08:41:56;;;;;;;5.00;3.33;;;;;;;;;;5028747;28;20559;-63
2023/08/14 08:44:31;;;;;;;11.40;4.13;;;;;;;;;;5030441;28;20358;-63
2023/08/14 08:47:02;;;;;;;12.07;4.47;;;;;;;;;;5028485;28;20572;-63
2023/08/14 08:49:28;;;;;;;7.40;2.95;;;;;;;;;;5029516;28;20096;-63
2023/08/14 08:51:53;;;;;;;6.40;3.03;;;;;;;;;;5028716;28;20120;-61
2023/08/14 08:54:19;;;;;;;6.47;3.45;;;;;;;;;;5029449;28;20056;-61
2023/08/14 08:56:44;;;;;;;6.63;3.20;;;;;;;;;;5029411;28;20037;-66
2023/08/14 08:59:11;;;;;;;8.00;4.00;;;;;;;;;;5029027;28;20021;-62
2023/08/14 09:01:36;;;;;;;4.88;3.65;;;;;;;;;;5028086;28;20405;-62
2023/08/14 09:04:02;;;;;;;7.87;2.63;;;;;;;;;;5030475;28;20014;-62
2023/08/14 09:06:27;;;;;;;7.78;3.67;;;;;;;;;;5028923;28;20045;-62
2023/08/14 09:08:53;;;;;;;5.77;3.60;;;;;;;;;;5030084;28;20128;-62
2023/08/14 09:11:18;;;;;;;6.38;3.63;;;;;;;;;;5029010;28;20038;-62
2023/08/14 09:13:43;;;;;;;6.10;2.90;;;;;;;;;;5030278;28;20049;-61
2023/08/14 09:16:12;;;;;;;7.23;2.67;;;;;;;;;;5028253;28;20044;-61
2023/08/14 09:18:37;;;;;;;6.65;3.38;;;;;;;;;;5029512;28;20475;-62
2023/08/14 09:21:03;;;;;;;9.15;4.03;;;;;;;;;;5028850;28;20382;-61
2023/08/14 09:23:30;;;;;;;6.78;3.33;;;;;;;;;;5029983;28;20026;-62
2023/08/14 09:25:55;;;;;;;10.02;3.55;;;;;;;;;;5028804;28;20040;-61
2023/08/14 09:28:21;;;;;;;8.02;3.88;;;;;;;;;;5029345;28;20029;-61
2023/08/14 09:30:46;;;;;;;4.82;3.10;;;;;;;;;;5029202;28;20037;-61
2023/08/14 09:33:11;;;;;;;5.82;3.25;;;;;;;;;;5033797;28;20021;-61
2023/08/14 09:35:38;;;;;;;6.22;3.25;;;;;;;;;;5032904;28;20416;-61
2023/08/14 09:38:03;;;;;;;7.30;2.75;;;;;;;;;;5033656;28;20025;-61
2023/08/14 09:40:29;;;;;;;11.63;3.22;;;;;;;;;;5033830;28;20078;-61
2023/08/14 09:42:55;;;;;;;11.40;4.07;;;;;;;;;;5032618;28;20640;-61
2023/08/14 09:45:23;;;;;;;6.45;3.88;;;;;;;;;;5033552;28;20029;-61
2023/08/14 09:47:49;;;;;;;6.25;2.70;;;;;;;;;;5032514;28;20038;-61
2023/08/14 09:50:15;;;;;;;6.32;3.65;;;;;;;;;;5033718;28;20114;-61
2023/08/14 09:52:41;;;;;;;8.23;2.97;;;;;;;;;;5032078;28;20029;-62
2023/08/14 09:55:07;;;;;;;10.25;3.47;;;;;;;;;;5033803;28;20116;-62
2023/08/14 09:57:32;;;;;;;6.22;3.72;;;;;;;;;;5031798;28;20118;-61
2023/08/14 09:59:57;;;;;;;4.70;2.38;;;;;;;;;;5033354;28;20024;-61
2023/08/14 10:02:23;;;;;;;9.43;4.05;;;;;;;;;;5032116;28;20087;-61
2023/08/14 10:04:49;;;;;;;9.05;3.30;;;;;;;;;;5030912;28;20017;-62
2023/08/14 10:07:16;;;;;;;9.05;3.05;;;;;;;;;;5031426;28;20041;-61
2023/08/14 10:09:43;;;;;;;7.03;3.17;;;;;;;;;;5033625;28;20014;-65
2023/08/14 10:12:11;;;;;;;6.53;1.90;;;;;;;;;;5014222;28;20041;-61
2023/08/14 10:14:37;;;;;;;8.43;2.80;;;;;;;;;;5013642;28;20010;-62
2023/08/14 10:17:03;;;;;;;3.72;1.98;;;;;;;;;;5032122;28;20030;-61
2023/08/14 10:19:29;;;;;;;4.50;2.58;;;;;;;;;;5029926;28;20057;-62
2023/08/14 10:21:55;;;;;;;4.90;2.63;;;;;;;;;;5012208;28;20318;-61
2023/08/14 10:24:22;;;;;;;8.27;3.05;;;;;;;;;;5021951;28;20030;-61
2023/08/14 10:26:47;;;;;;;10.73;4.53;;;;;;;;;;5041681;28;20033;-62
2023/08/14 10:29:13;;;;;;;6.10;2.42;;;;;;;;;;5051608;28;20388;-62
2023/08/14 10:31:38;;;;;;;7.68;2.35;;;;;;;;;;5051752;28;20454;-61
2023/08/14 10:34:04;;;;;;;6.25;3.03;;;;;;;;;;5049407;28;20492;-61
2023/08/14 10:36:30;;;;;;;4.45;2.15;;;;;;;;;;5049038;28;20044;-61
2023/08/14 10:39:04;;;;;;;9.52;3.78;;;;;;;;;;5052934;28;20025;-62
2023/08/14 10:41:32;;;;;;;9.73;3.05;;;;;;;;;;5049846;28;20071;-62
2023/08/14 10:43:57;;;;;;;5.60;2.60;;;;;;;;;;5052243;28;20094;-61
2023/08/14 10:46:23;;;;;;;3.75;2.83;;;;;;;;;;5050730;28;20080;-62
2023/08/14 10:48:48;;;;;;;7.00;3.38;;;;;;;;;;5051059;28;20503;-61
2023/08/14 10:51:16;;;;;;;7.78;2.28;;;;;;;;;;5048471;28;20036;-61
2023/08/14 10:53:41;;;;;;;3.78;2.55;;;;;;;;;;5051787;28;20115;-61
2023/08/14 10:56:06;;;;;;;4.82;2.67;;;;;;;;;;5049168;28;20107;-61
2023/08/14 10:58:32;;;;;;;4.32;2.00;;;;;;;;;;5051388;28;20017;-61
2023/08/14 11:00:58;;;;;;;6.60;2.90;;;;;;;;;;5050802;28;20029;-61
2023/08/14 11:03:24;;;;;;;10.95;2.88;;;;;;;;;;5052012;28;20017;-62
2023/08/14 11:05:49;;;;;;;7.60;2.63;;;;;;;;;;5051457;28;20025;-61
2023/08/14 11:08:15;;;;;;;6.03;2.03;;;;;;;;;;5052765;28;20013;-61
2023/08/14 11:10:41;;;;;;;15.68;4.35;;;;;;;;;;5051235;28;20009;-62
2023/08/14 11:13:06;;;;;;;11.30;2.55;;;;;;;;;;5052673;28;20020;-61
2023/08/14 11:15:32;;;;;;;20.20;3.67;;;;;;;;;;5052397;28;20459;-61
2023/08/14 11:17:58;;;;;;;7.72;2.20;;;;;;;;;;5051227;28;20475;-61
2023/08/14 11:20:27;;;;;;;5.70;3.63;;;;;;;;;;5051771;28;20560;-61
2023/08/14 11:22:53;;;;;;;4.68;2.10;;;;;;;;;;5051259;28;20587;-61
2023/08/14 11:25:19;;;;;;;4.55;1.90;;;;;;;;;;5052212;28;20021;-62
2023/08/14 11:27:49;;;;;;;6.07;2.20;;;;;;;;;;5050667;28;20923;-61
2023/08/14 11:30:14;;;;;;;7.60;2.58;;;;;;;;;;5052424;28;20383;-62
2023/08/14 11:32:39;;;;;;;8.43;3.67;;;;;;;;;;5050914;28;20116;-62
2023/08/14 11:35:06;;;;;;;10.35;5.30;;;;;;;;;;5052129;28;20834;-61
2023/08/14 11:37:31;;;;;;;4.72;2.20;;;;;;;;;;5032704;28;20033;-62
2023/08/14 11:40:00;;;;;;;15.75;6.97;;;;;;;;;;5052180;28;20090;-62
2023/08/14 11:42:25;;;;;;;7.40;3.30;;;;;;;;;;5050203;28;20492;-62
2023/08/14 11:44:50;;;;;;;19.05;7.20;;;;;;;;;;5052183;28;20024;-62
2023/08/14 11:47:16;;;;;;;15.23;6.85;;;;;;;;;;5050422;28;20389;-62
2023/08/14 11:49:41;;;;;;;9.18;3.25;;;;;;;;;;5051474;28;20021;-61
2023/08/14 11:52:06;;;;;;;7.40;2.10;;;;;;;;;;5050793;28;20373;-61
2023/08/14 11:54:33;;;;;;;3.72;1.90;;;;;;;;;;5051143;28;20096;-62
2023/08/14 11:57:02;;;;;;;8.80;3.33;;;;;;;;;;5050546;28;20029;-63
2023/08/14 11:59:27;;;;;;;7.03;2.80;;;;;;;;;;5051289;28;20024;-61
2023/08/14 12:01:53;;;;;;;4.32;1.58;;;;;;;;;;5050354;28;20083;-62
2023/08/14 12:04:18;;;;;;;3.63;1.77;;;;;;;;;;5051472;28;20052;-61
2023/08/14 12:06:43;;;;;;;9.30;3.08;;;;;;;;;;5050084;28;20041;-61
2023/08/14 12:09:12;;;;;;;11.40;3.50;;;;;;;;;;5051174;28;20040;-61
2023/08/14 12:11:38;;;;;;;5.68;2.00;;;;;;;;;;5050330;28;20033;-62
2023/08/14 12:14:06;;;;;;;8.52;2.28;;;;;;;;;;5051404;28;20024;-61
2023/08/14 12:16:32;;;;;;;8.43;3.65;;;;;;;;;;5049680;28;20124;-61
2023/08/14 12:18:57;;;;;;;3.95;2.47;;;;;;;;;;5051301;28;20132;-62
2023/08/14 12:21:27;;;;;;;8.00;2.33;;;;;;;;;;5049535;28;20044;-62
2023/08/14 12:23:52;;;;;;;11.45;3.97;;;;;;;;;;5051636;28;20379;-61
2023/08/14 12:26:18;;;;;;;5.20;2.22;;;;;;;;;;5049688;28;20116;-61
2023/08/14 12:28:43;;;;;;;7.33;3.43;;;;;;;;;;5050950;28;20021;-61
2023/08/14 12:31:09;;;;;;;7.53;2.63;;;;;;;;;;5049919;28;20427;-62
2023/08/14 12:33:34;;;;;;;6.38;2.65;;;;;;;;;;5051248;28;20100;-64
2023/08/14 12:36:00;;;;;;;3.93;2.07;;;;;;;;;;5049532;28;20506;-62
2023/08/14 12:38:25;;;;;;;3.90;2.17;;;;;;;;;;5050891;28;20024;-61
2023/08/14 12:40:51;;;;;;;6.88;2.38;;;;;;;;;;5050083;28;20070;-61
2023/08/14 12:43:17;;;;;;;6.40;1.93;;;;;;;;;;5050498;28;20039;-61
2023/08/14 12:45:42;;;;;;;4.57;2.03;;;;;;;;;;5050055;28;20098;-61
2023/08/14 12:48:07;;;;;;;11.25;2.78;;;;;;;;;;5051100;28;20053;-61
2023/08/14 12:50:33;;;;;;;6.23;2.73;;;;;;;;;;5050662;28;20017;-62
2023/08/14 12:52:58;;;;;;;8.37;2.43;;;;;;;;;;5049600;28;20033;-62
2023/08/14 12:55:23;;;;;;;8.60;2.78;;;;;;;;;;5050611;28;20017;-62
2023/08/14 12:57:48;;;;;;;7.70;3.07;;;;;;;;;;5030951;28;20264;-62
2023/08/14 13:00:13;;;;;;;3.90;3.08;;;;;;;;;;5030828;28;20417;-61
2023/08/14 13:02:39;;;;;;;8.02;3.08;;;;;;;;;;5029627;28;20088;-61
2023/08/14 13:05:04;;;;;;;3.58;1.73;;;;;;;;;;5029704;28;20469;-62
2023/08/14 13:07:30;;;;;;;4.40;2.05;;;;;;;;;;5045012;28;20041;-61
2023/08/14 13:09:56;;;;;;;9.90;4.50;;;;;;;;;;5050741;28;20029;-62
2023/08/14 13:12:21;;;;;;;5.40;2.70;;;;;;;;;;5048643;28;20033;-62
2023/08/14 13:14:46;;;;;;;6.57;2.93;;;;;;;;;;5050806;28;20032;-62
2023/08/14 13:17:11;;;;;;;16.27;3.77;;;;;;;;;;5036197;28;20492;-62
2023/08/14 13:19:36;;;;;;;9.90;3.10;;;;;;;;;;5030127;28;20059;-62
2023/08/14 13:22:01;;;;;;;10.27;2.15;;;;;;;;;;5028620;28;20033;-62
2023/08/14 13:24:26;;;;;;;7.93;3.45;;;;;;;;;;5020652;28;20108;-62
2023/08/14 13:26:52;;;;;;;7.22;3.35;;;;;;;;;;5028383;28;20033;-62
2023/08/14 13:29:17;;;;;;;4.53;2.07;;;;;;;;;;5030579;28;20436;-62
2023/08/14 13:31:44;;;;;;;4.67;2.83;;;;;;;;;;5029281;28;20033;-62
2023/08/14 13:34:09;;;;;;;6.40;3.20;;;;;;;;;;5028767;28;20401;-62
2023/08/14 13:36:34;;;;;;;4.88;2.25;;;;;;;;;;5029052;28;20111;-62
2023/08/14 13:38:59;;;;;;;9.17;2.67;;;;;;;;;;5029368;28;20499;-63
2023/08/14 13:41:25;;;;;;;9.13;2.90;;;;;;;;;;5028296;28;20045;-62
2023/08/14 13:43:50;;;;;;;16.67;5.47;;;;;;;;;;5030665;28;20962;-61
2023/08/14 13:46:15;;;;;;;4.63;2.83;;;;;;;;;;5028885;28;20053;-62
2023/08/14 13:48:40;;;;;;;4.10;2.08;;;;;;;;;;5030169;28;20104;-62
2023/08/14 13:51:05;;;;;;;10.90;3.50;;;;;;;;;;5027814;28;20033;-62
2023/08/14 13:53:30;;;;;;;14.27;4.23;;;;;;;;;;5030447;28;20417;-62
2023/08/14 13:55:55;;;;;;;6.22;3.30;;;;;;;;;;5028381;28;21015;-61
2023/08/14 13:58:21;;;;;;;4.38;2.97;;;;;;;;;;5030257;28;20142;-62
2023/08/14 14:00:46;;;;;;;10.43;3.17;;;;;;;;;;5028487;28;20025;-62
2023/08/14 14:03:11;;;;;;;9.85;4.32;;;;;;;;;;5029841;28;20021;-62
2023/08/14 14:05:36;;;;;;;6.47;2.67;;;;;;;;;;5029059;28;20021;-62
2023/08/14 14:08:02;;;;;;;9.23;3.50;;;;;;;;;;5030258;28;20493;-62
2023/08/14 14:10:27;;;;;;;5.60;2.55;;;;;;;;;;5029256;28;20045;-62
2023/08/14 14:12:52;;;;;;;8.98;3.13;;;;;;;;;;5028604;28;20049;-61
2023/08/14 14:15:18;;;;;;;7.57;3.25;;;;;;;;;;5029506;28;20568;-61
2023/08/14 14:17:43;;;;;;;6.20;2.90;;;;;;;;;;5048312;28;20064;-62
2023/08/14 14:20:09;;;;;;;12.00;3.67;;;;;;;;;;5053583;28;20463;-62
2023/08/14 14:22:34;;;;;;;27.23;3.55;;;;;;;;;;5051867;28;20060;-61
2023/08/14 14:24:59;;;;;;;11.25;2.97;;;;;;;;;;5053291;28;20020;-62